メインページ
METAR-TAF:

METAR-TAF

空港 :

マレクラ島, バヌアツ

緯度: 16-27-26S, 経度: 167-49-42E, 海抜: 2m

現時点の気象観測

当レポートは1時間17分前の18:00(UTC)に作成
の風 12kt
気温 25°C
湿度 83%
気圧 1012 hPa

METAR: NVSL 151800Z AUTO 09012KT //// // NCD 25/22 Q1012 RMK NIL

時間: 06:17 (19:17 UTC)

予報

当レポートは3時間17分前の16:00(UTC)に作成
予報は15日の 18時(UTC)から 16日の 18時(UTC)まで有効
南東の風 9kt
視程: 8000m
高度2000ftの雲は散在している
高度4000ftの千切れ雲あり
高度1500ftの千切れ雲あり
高度3500ftの曇り
にわか雨

TAF: NVSL 151600Z 1518/1618 13009KT 9999 SCT020 BKN040 INTER 1518/1524 8000 SHRA BKN015 OVC035

4,000以上の空港の気象観測と天気予報(METAR報とTAF報)

利用可能な観測所は地図上に黄色い丸と赤い丸で示す。

丸の上にカーソルを重ねると観測所名を参照できる。

次にクリックすると気象観測と天気予報を参照できる。

マップの切り替え:黒色「×」印の緑ボタンをクリックして拡大、「-」印の緑ボタンをクリックして縮小、緑色の三角印をクリックして隣りの地図に切り替え


METAR-TAF: